createdAt,value
2023-05-19T00:01:31.214Z,12.04
2023-05-19T00:03:59.549Z,11.52
2023-05-19T00:06:28.762Z,11.20
2023-05-19T00:09:06.432Z,11.61
2023-05-19T00:11:33.825Z,11.86
2023-05-19T00:14:03.396Z,12.04
2023-05-19T00:16:30.938Z,12.22
2023-05-19T00:18:58.854Z,12.35
2023-05-19T00:21:26.170Z,12.25
2023-05-19T00:23:52.787Z,12.11
2023-05-19T00:26:19.464Z,11.62
2023-05-19T00:28:46.150Z,11.79
2023-05-19T00:31:15.494Z,11.25
2023-05-19T00:33:44.881Z,11.16
2023-05-19T00:36:11.832Z,11.35
2023-05-19T00:38:39.200Z,11.59
2023-05-19T00:41:06.662Z,11.56
2023-05-19T00:43:33.806Z,11.77
2023-05-19T00:46:00.642Z,11.67
2023-05-19T00:48:27.394Z,11.67
2023-05-19T00:50:56.635Z,11.62
2023-05-19T00:53:24.618Z,11.75
2023-05-19T00:55:51.320Z,11.59
2023-05-19T00:58:18.820Z,11.57
2023-05-19T01:00:45.871Z,11.61
2023-05-19T01:03:14.622Z,11.52
2023-05-19T01:05:42.482Z,11.65
2023-05-19T01:08:09.394Z,11.58
2023-05-19T01:10:36.539Z,11.40
2023-05-19T01:13:05.147Z,11.24
2023-05-19T01:16:04.514Z,11.39
2023-05-19T01:18:43.269Z,11.35
2023-05-19T01:21:33.553Z,11.15
2023-05-19T01:24:18.477Z,11.38
2023-05-19T01:27:20.403Z,11.29
2023-05-19T01:30:08.045Z,11.48
2023-05-19T01:32:36.210Z,11.37
2023-05-19T01:35:04.606Z,10.90
2023-05-19T01:37:32.371Z,11.09
2023-05-19T01:39:59.238Z,11.20
2023-05-19T01:42:27.455Z,11.24
2023-05-19T01:44:55.688Z,11.01
2023-05-19T01:47:22.848Z,11.21
2023-05-19T01:49:49.483Z,11.39
2023-05-19T01:52:16.110Z,11.51
2023-05-19T01:54:45.093Z,11.39
2023-05-19T01:57:39.093Z,10.61
2023-05-19T02:00:31.038Z,10.45
2023-05-19T02:03:39.342Z,10.61
2023-05-19T02:06:30.471Z,10.44
2023-05-19T02:09:04.366Z,10.98
2023-05-19T02:11:41.508Z,11.05
2023-05-19T02:14:16.580Z,11.28
2023-05-19T02:16:46.004Z,11.62
2023-05-19T02:19:33.880Z,11.37
2023-05-19T02:22:00.612Z,11.20
2023-05-19T02:24:27.266Z,11.29
2023-05-19T02:26:54.459Z,11.33
2023-05-19T02:29:21.582Z,11.52
2023-05-19T02:31:48.568Z,11.54
2023-05-19T02:34:15.403Z,11.52
2023-05-19T02:36:42.822Z,11.31
2023-05-19T02:39:11.028Z,11.25
2023-05-19T02:41:38.451Z,11.24
2023-05-19T02:44:05.707Z,11.19
2023-05-19T02:46:32.733Z,11.21
2023-05-19T02:49:00.002Z,11.28
2023-05-19T02:51:26.662Z,11.14
2023-05-19T02:53:53.352Z,11.12
2023-05-19T02:56:20.054Z,11.17
2023-05-19T02:58:46.794Z,11.24
2023-05-19T03:01:13.442Z,11.21
2023-05-19T03:03:40.190Z,10.53
2023-05-19T03:06:06.934Z,10.39
2023-05-19T03:08:33.628Z,10.65
2023-05-19T03:11:00.271Z,10.89
2023-05-19T03:13:26.971Z,11.01
2023-05-19T03:15:53.722Z,11.06
2023-05-19T03:18:20.479Z,11.13
2023-05-19T03:20:47.172Z,11.10
2023-05-19T03:23:13.792Z,11.05
2023-05-19T03:25:40.446Z,10.97
2023-05-19T03:28:07.110Z,10.97
2023-05-19T03:30:34.044Z,11.11
2023-05-19T03:33:01.051Z,11.19
2023-05-19T03:35:27.868Z,10.99
2023-05-19T03:37:54.517Z,10.91
2023-05-19T03:40:21.191Z,10.98
2023-05-19T03:42:47.803Z,10.92
2023-05-19T03:45:14.569Z,10.87
2023-05-19T03:47:41.369Z,11.02
2023-05-19T03:50:08.351Z,11.09
2023-05-19T03:52:35.014Z,10.94
2023-05-19T03:55:01.625Z,10.96
2023-05-19T03:57:28.397Z,11.05
2023-05-19T03:59:55.123Z,11.47
2023-05-19T04:02:21.973Z,11.75
2023-05-19T04:04:48.849Z,11.02
2023-05-19T04:07:15.552Z,10.97
2023-05-19T04:09:42.596Z,11.48
2023-05-19T04:12:09.495Z,10.87
2023-05-19T04:14:36.117Z,11.22
2023-05-19T04:17:02.819Z,10.68
2023-05-19T04:19:29.608Z,10.67
2023-05-19T04:21:59.269Z,10.79
2023-05-19T04:24:25.876Z,11.62
2023-05-19T04:26:52.675Z,10.94
2023-05-19T04:29:19.465Z,11.16
2023-05-19T04:31:46.309Z,11.70
2023-05-19T04:34:12.971Z,11.50
2023-05-19T04:36:39.695Z,11.05
2023-05-19T04:39:06.381Z,11.26
2023-05-19T04:41:33.680Z,11.08
2023-05-19T04:44:00.467Z,11.11
2023-05-19T04:46:27.418Z,11.30
2023-05-19T04:48:54.123Z,11.21
2023-05-19T04:51:20.821Z,11.35
2023-05-19T04:53:47.690Z,11.87
2023-05-19T04:56:14.336Z,11.47
2023-05-19T04:58:42.038Z,11.48
2023-05-19T05:01:08.768Z,11.75
2023-05-19T05:03:35.626Z,12.32
2023-05-19T05:06:02.467Z,12.55
2023-05-19T05:08:29.104Z,12.47
2023-05-19T05:10:56.019Z,12.15
2023-05-19T05:13:23.779Z,12.30
2023-05-19T05:15:51.189Z,12.24
2023-05-19T05:18:18.637Z,12.42
2023-05-19T05:20:46.059Z,12.29
2023-05-19T05:23:13.075Z,12.05
2023-05-19T05:25:40.575Z,11.89
2023-05-19T05:28:07.336Z,12.30
2023-05-19T05:30:34.684Z,12.31
2023-05-19T05:33:02.245Z,12.13
2023-05-19T05:35:29.197Z,12.37
2023-05-19T05:37:55.929Z,12.17
2023-05-19T05:40:22.639Z,11.92
2023-05-19T05:42:49.298Z,11.70
2023-05-19T05:45:16.029Z,11.68
2023-05-19T05:47:42.994Z,11.82
2023-05-19T05:50:10.536Z,12.10
2023-05-19T05:52:38.309Z,12.04
2023-05-19T05:55:05.733Z,12.00
2023-05-19T05:57:32.373Z,12.25
2023-05-19T05:59:59.177Z,12.02
2023-05-19T06:02:26.219Z,11.92
2023-05-19T06:04:52.960Z,12.28
2023-05-19T06:07:20.229Z,12.09
2023-05-19T06:09:46.883Z,12.08
2023-05-19T06:12:13.544Z,12.63
2023-05-19T06:14:40.177Z,12.59
2023-05-19T06:17:09.276Z,12.97
2023-05-19T06:19:35.981Z,12.68
2023-05-19T06:22:02.752Z,13.07
2023-05-19T06:24:29.470Z,12.82
2023-05-19T06:26:56.151Z,12.61
2023-05-19T06:29:22.819Z,12.33
2023-05-19T06:31:49.626Z,12.31
2023-05-19T06:34:16.358Z,12.12
2023-05-19T06:36:43.074Z,12.47
2023-05-19T06:39:09.731Z,13.24
2023-05-19T06:41:38.516Z,13.30
2023-05-19T06:44:07.534Z,13.27
2023-05-19T06:46:34.326Z,13.49
2023-05-19T06:49:03.779Z,13.86
2023-05-19T06:51:30.619Z,13.51
2023-05-19T06:53:57.342Z,12.86
2023-05-19T06:56:24.072Z,13.30
2023-05-19T06:58:50.729Z,12.87
2023-05-19T07:01:17.407Z,13.47
2023-05-19T07:03:44.275Z,13.63
2023-05-19T07:06:11.094Z,12.99
2023-05-19T07:08:37.783Z,13.16
2023-05-19T07:11:07.286Z,13.62
2023-05-19T07:13:33.954Z,13.67
2023-05-19T07:16:00.780Z,13.82
2023-05-19T07:18:27.513Z,13.72
2023-05-19T07:20:54.216Z,13.55
2023-05-19T07:23:20.962Z,13.63
2023-05-19T07:25:47.680Z,13.67
2023-05-19T07:28:14.333Z,13.87
2023-05-19T07:30:41.095Z,13.69
2023-05-19T07:33:07.797Z,13.66
2023-05-19T07:35:34.634Z,13.87
2023-05-19T07:38:01.321Z,14.12
2023-05-19T07:40:27.957Z,13.97
2023-05-19T07:42:54.742Z,14.02
2023-05-19T07:45:21.509Z,14.03
2023-05-19T07:47:48.292Z,14.15
2023-05-19T07:50:14.953Z,14.74
2023-05-19T07:52:41.585Z,14.43
2023-05-19T07:55:08.565Z,14.83
2023-05-19T07:57:35.261Z,14.79
2023-05-19T08:00:02.081Z,14.75
2023-05-19T08:02:28.831Z,14.92
2023-05-19T08:04:55.630Z,15.08
2023-05-19T08:07:22.401Z,15.26
2023-05-19T08:09:49.051Z,15.58
2023-05-19T08:12:15.710Z,15.51
2023-05-19T08:14:42.442Z,15.32
2023-05-19T08:17:11.466Z,15.34
2023-05-19T08:19:38.129Z,15.23
2023-05-19T08:22:04.982Z,14.83
2023-05-19T08:24:31.678Z,15.05
2023-05-19T08:26:59.913Z,15.44
2023-05-19T08:29:26.600Z,15.65
2023-05-19T08:31:53.677Z,15.79
2023-05-19T08:34:20.444Z,15.78
2023-05-19T08:36:47.089Z,15.60
2023-05-19T08:39:13.807Z,16.24
2023-05-19T08:41:40.593Z,16.37
2023-05-19T08:44:07.427Z,16.55
2023-05-19T08:46:35.315Z,16.73
2023-05-19T08:49:05.615Z,16.72
2023-05-19T08:51:34.688Z,17.12
2023-05-19T08:54:12.381Z,16.61
2023-05-19T08:56:39.115Z,16.59
2023-05-19T08:59:07.020Z,16.80
2023-05-19T09:01:34.402Z,17.29
2023-05-19T09:04:01.720Z,17.52
2023-05-19T09:06:28.946Z,17.39
2023-05-19T09:08:55.934Z,16.98
2023-05-19T09:11:22.737Z,16.73
2023-05-19T09:13:49.713Z,16.83
2023-05-19T09:16:19.336Z,17.10
2023-05-19T09:18:57.323Z,17.30
2023-05-19T09:21:31.214Z,17.12
2023-05-19T09:23:59.293Z,17.15
2023-05-19T09:26:36.451Z,16.74
2023-05-19T09:29:03.280Z,16.71
2023-05-19T09:31:32.462Z,16.92
2023-05-19T09:33:59.224Z,16.80
2023-05-19T09:36:25.856Z,17.25
2023-05-19T09:38:52.670Z,17.07
2023-05-19T09:41:19.938Z,17.04
2023-05-19T09:43:54.683Z,17.03
2023-05-19T09:46:25.532Z,16.54
2023-05-19T09:48:57.556Z,17.21
2023-05-19T09:51:25.087Z,17.24
2023-05-19T09:53:52.927Z,17.64
2023-05-19T09:56:19.549Z,18.06
2023-05-19T09:58:46.259Z,18.06
2023-05-19T10:01:15.078Z,18.02
2023-05-19T10:03:42.484Z,17.82
2023-05-19T10:06:10.117Z,18.13
2023-05-19T10:08:37.737Z,18.10
2023-05-19T10:11:05.381Z,17.68
2023-05-19T10:13:32.079Z,18.10
2023-05-19T10:16:00.200Z,18.43
2023-05-19T10:18:27.469Z,18.26
2023-05-19T10:20:54.496Z,17.93
2023-05-19T10:23:21.260Z,18.13
2023-05-19T10:25:49.681Z,18.31
2023-05-19T10:28:18.765Z,18.48
2023-05-19T10:30:49.037Z,18.13
2023-05-19T10:33:18.162Z,18.43
2023-05-19T10:35:50.586Z,18.62
2023-05-19T10:38:40.448Z,18.31
2023-05-19T10:41:27.431Z,17.80
2023-05-19T10:44:17.744Z,17.68
2023-05-19T10:46:44.607Z,17.88
2023-05-19T10:49:20.626Z,18.00
2023-05-19T10:51:47.362Z,18.28
2023-05-19T10:54:14.484Z,18.85
2023-05-19T10:56:43.736Z,19.07
2023-05-19T10:59:30.826Z,19.43
2023-05-19T11:01:57.636Z,19.07
2023-05-19T11:04:47.440Z,19.74
2023-05-19T11:07:19.314Z,19.72
2023-05-19T11:09:50.504Z,19.94
2023-05-19T11:12:21.340Z,20.53
2023-05-19T11:14:48.266Z,19.84
2023-05-19T11:17:16.081Z,19.98
2023-05-19T11:19:53.945Z,19.97
2023-05-19T11:22:25.226Z,19.77
2023-05-19T11:24:54.517Z,19.77
2023-05-19T11:27:26.799Z,20.23
2023-05-19T11:29:55.437Z,20.83
2023-05-19T11:32:25.930Z,20.77
2023-05-19T11:34:52.877Z,21.09
2023-05-19T11:37:19.507Z,20.53
2023-05-19T11:39:46.762Z,20.65
2023-05-19T11:42:13.979Z,20.51
2023-05-19T11:44:40.861Z,19.91
2023-05-19T11:47:08.320Z,20.31
2023-05-19T11:49:35.102Z,20.17
2023-05-19T11:52:02.317Z,20.55
2023-05-19T11:54:33.154Z,20.76
2023-05-19T11:57:01.324Z,20.31
2023-05-19T11:59:32.265Z,20.70
2023-05-19T12:02:16.243Z,20.67
2023-05-19T12:04:43.387Z,20.65
2023-05-19T12:07:13.700Z,21.04
2023-05-19T12:09:40.544Z,21.47
2023-05-19T12:12:07.932Z,21.29
2023-05-19T12:14:35.663Z,21.23
2023-05-19T12:17:15.667Z,21.46
2023-05-19T12:19:46.953Z,21.05
2023-05-19T12:22:15.278Z,20.85
2023-05-19T12:24:43.706Z,21.18
2023-05-19T12:27:25.870Z,21.34
2023-05-19T12:29:54.710Z,21.62
2023-05-19T12:32:25.380Z,21.85
2023-05-19T12:34:53.163Z,21.99
2023-05-19T12:37:19.950Z,21.16
2023-05-19T12:39:49.032Z,21.31
2023-05-19T12:42:16.326Z,21.11
2023-05-19T12:44:45.371Z,21.44
2023-05-19T12:47:12.417Z,21.48
2023-05-19T12:49:59.285Z,21.85
2023-05-19T12:52:27.697Z,21.77
2023-05-19T12:55:02.308Z,21.78
2023-05-19T12:57:33.588Z,21.87
2023-05-19T13:00:03.586Z,22.01
2023-05-19T13:02:30.616Z,22.11
2023-05-19T13:04:59.820Z,21.96
2023-05-19T13:07:26.647Z,22.16
2023-05-19T13:09:53.408Z,21.86
2023-05-19T13:12:20.087Z,22.19
2023-05-19T13:14:46.846Z,22.26
2023-05-19T13:17:13.589Z,22.55
2023-05-19T13:19:40.272Z,22.25
2023-05-19T13:22:06.992Z,22.76
2023-05-19T13:24:33.689Z,22.56
2023-05-19T13:27:00.392Z,22.63
2023-05-19T13:29:27.017Z,22.66
2023-05-19T13:31:53.767Z,22.97
2023-05-19T13:34:20.465Z,22.82
2023-05-19T13:36:47.076Z,22.47
2023-05-19T13:39:14.097Z,22.75
2023-05-19T13:41:40.749Z,22.95
2023-05-19T13:44:07.485Z,22.63
2023-05-19T13:46:44.600Z,22.49
2023-05-19T13:49:12.662Z,22.30
2023-05-19T13:51:42.277Z,22.84
2023-05-19T13:54:08.965Z,23.23
2023-05-19T13:56:36.268Z,23.22
2023-05-19T13:59:03.433Z,23.08
2023-05-19T14:01:30.182Z,22.52
2023-05-19T14:03:57.196Z,22.98
2023-05-19T14:06:24.150Z,23.21
2023-05-19T14:08:50.850Z,23.27
2023-05-19T14:11:20.939Z,23.53
2023-05-19T14:13:50.567Z,23.63
2023-05-19T14:16:19.232Z,23.66
2023-05-19T14:18:46.068Z,23.83
2023-05-19T14:21:12.841Z,23.76
2023-05-19T14:23:39.550Z,23.48
2023-05-19T14:26:06.356Z,23.87
2023-05-19T14:28:33.199Z,23.68
2023-05-19T14:30:59.929Z,23.11
2023-05-19T14:33:26.676Z,23.29
2023-05-19T14:35:53.498Z,23.67
2023-05-19T14:38:20.163Z,23.85
2023-05-19T14:40:46.973Z,24.03
2023-05-19T14:43:13.858Z,24.16
2023-05-19T14:45:40.857Z,23.87
2023-05-19T14:48:08.179Z,24.23
2023-05-19T14:50:35.052Z,23.80
2023-05-19T14:53:02.023Z,23.75
2023-05-19T14:55:28.701Z,24.03
2023-05-19T14:57:55.471Z,23.98
2023-05-19T15:00:22.193Z,24.15
2023-05-19T15:02:51.508Z,23.95
2023-05-19T15:05:18.164Z,23.88
2023-05-19T15:07:45.125Z,23.29
2023-05-19T15:10:12.012Z,23.12
2023-05-19T15:12:38.698Z,23.46
2023-05-19T15:15:05.944Z,23.76
2023-05-19T15:17:32.679Z,23.94
2023-05-19T15:19:59.614Z,23.86
2023-05-19T15:22:26.554Z,23.66
2023-05-19T15:24:53.325Z,23.42
2023-05-19T15:27:20.101Z,23.21
2023-05-19T15:29:46.840Z,23.02
2023-05-19T15:32:13.539Z,23.09
2023-05-19T15:34:40.200Z,22.99
2023-05-19T15:37:06.947Z,23.13
2023-05-19T15:39:33.608Z,22.66
2023-05-19T15:42:00.355Z,22.87
2023-05-19T15:44:28.918Z,22.68
2023-05-19T15:46:55.786Z,22.52
2023-05-19T15:49:22.573Z,22.57
2023-05-19T15:51:49.238Z,23.08
2023-05-19T15:54:15.907Z,23.22
2023-05-19T15:56:42.563Z,23.44
2023-05-19T15:59:09.218Z,23.40
2023-05-19T16:01:36.308Z,23.17
2023-05-19T16:04:03.092Z,23.15
2023-05-19T16:06:30.387Z,23.31
2023-05-19T16:08:57.106Z,23.11
2023-05-19T16:11:23.954Z,23.46
2023-05-19T16:13:50.625Z,22.95
2023-05-19T16:16:17.261Z,23.16
2023-05-19T16:18:44.202Z,23.26
2023-05-19T16:21:11.096Z,23.32
2023-05-19T16:23:37.729Z,23.16
2023-05-19T16:26:04.459Z,23.23
2023-05-19T16:28:31.306Z,23.57
2023-05-19T16:30:58.875Z,23.68
2023-05-19T16:33:26.396Z,23.77
2023-05-19T16:35:53.064Z,23.87
2023-05-19T16:38:19.818Z,23.95
2023-05-19T16:40:46.572Z,23.93
2023-05-19T16:43:13.261Z,23.88
2023-05-19T16:45:42.928Z,24.11
2023-05-19T16:48:09.851Z,24.07
2023-05-19T16:50:37.195Z,23.91
2023-05-19T16:53:04.135Z,23.63
2023-05-19T16:55:30.779Z,23.41
2023-05-19T16:57:57.551Z,23.08
2023-05-19T17:00:24.316Z,23.10
2023-05-19T17:02:51.055Z,22.55
2023-05-19T17:05:17.985Z,21.43
2023-05-19T17:07:44.732Z,21.50
2023-05-19T17:10:11.566Z,21.63
2023-05-19T17:12:38.208Z,21.50
2023-05-19T17:15:05.510Z,20.88
2023-05-19T17:17:32.273Z,21.04
2023-05-19T17:19:59.032Z,21.19
2023-05-19T17:22:26.404Z,21.34
2023-05-19T17:24:54.224Z,21.41
2023-05-19T17:27:20.926Z,21.35
2023-05-19T17:29:47.662Z,21.12
2023-05-19T17:32:14.367Z,21.02
2023-05-19T17:34:41.057Z,20.83
2023-05-19T17:37:07.674Z,20.77
2023-05-19T17:39:34.383Z,20.72
2023-05-19T17:42:01.026Z,20.64
2023-05-19T17:44:27.868Z,20.53
2023-05-19T17:46:54.699Z,20.43
2023-05-19T17:49:21.393Z,20.35
2023-05-19T17:51:48.260Z,20.20
2023-05-19T17:54:15.430Z,20.19
2023-05-19T17:56:44.412Z,20.20
2023-05-19T17:59:11.481Z,20.23
2023-05-19T18:01:38.451Z,20.00
2023-05-19T18:04:05.569Z,19.54
2023-05-19T18:06:32.489Z,19.48
2023-05-19T18:09:01.048Z,19.59
2023-05-19T18:11:28.086Z,19.50
2023-05-19T18:13:54.823Z,19.48
2023-05-19T18:16:21.594Z,19.49
2023-05-19T18:18:48.302Z,19.33
2023-05-19T18:21:15.006Z,19.18
2023-05-19T18:23:41.817Z,19.19
2023-05-19T18:26:08.592Z,19.16
2023-05-19T18:28:35.225Z,19.02
2023-05-19T18:31:06.009Z,18.99
2023-05-19T18:33:33.253Z,18.94
2023-05-19T18:35:59.898Z,18.72
2023-05-19T18:38:26.782Z,18.84
2023-05-19T18:40:53.446Z,18.76
2023-05-19T18:43:20.104Z,18.53
2023-05-19T18:45:47.360Z,18.45
2023-05-19T18:48:14.070Z,18.52
2023-05-19T18:50:40.863Z,18.52
2023-05-19T18:53:07.520Z,18.41
2023-05-19T18:55:35.038Z,18.23
2023-05-19T18:58:02.629Z,18.22
2023-05-19T19:00:29.295Z,18.27
2023-05-19T19:02:56.074Z,18.15
2023-05-19T19:05:22.817Z,18.11
2023-05-19T19:07:49.507Z,18.04
2023-05-19T19:10:16.234Z,17.83
2023-05-19T19:12:42.848Z,17.68
2023-05-19T19:15:10.090Z,17.53
2023-05-19T19:17:37.192Z,17.23
2023-05-19T19:20:04.247Z,17.05
2023-05-19T19:22:30.993Z,17.01
2023-05-19T19:24:57.706Z,17.14
2023-05-19T19:27:24.472Z,17.17
2023-05-19T19:29:51.221Z,17.18
2023-05-19T19:32:17.920Z,17.09
2023-05-19T19:34:44.568Z,16.94
2023-05-19T19:37:11.248Z,16.90
2023-05-19T19:39:37.897Z,16.86
2023-05-19T19:42:04.872Z,16.83
2023-05-19T19:44:31.520Z,16.95
2023-05-19T19:46:58.270Z,16.82
2023-05-19T19:49:24.951Z,16.84
2023-05-19T19:51:51.693Z,17.18
2023-05-19T19:54:18.661Z,16.84
2023-05-19T19:56:45.513Z,16.70
2023-05-19T19:59:12.148Z,16.57
2023-05-19T20:01:38.868Z,16.55
2023-05-19T20:04:05.706Z,16.56
2023-05-19T20:06:32.422Z,16.71
2023-05-19T20:08:59.815Z,16.74
2023-05-19T20:11:26.469Z,16.76
2023-05-19T20:13:53.506Z,16.92
2023-05-19T20:16:20.252Z,17.07
2023-05-19T20:18:47.056Z,17.10
2023-05-19T20:21:13.787Z,17.16
2023-05-19T20:23:40.396Z,17.30
2023-05-19T20:26:12.365Z,17.41
2023-05-19T20:28:39.990Z,17.38
2023-05-19T20:31:06.797Z,17.19
2023-05-19T20:33:33.582Z,17.17
2023-05-19T20:36:00.458Z,17.11
2023-05-19T20:38:27.518Z,17.32
2023-05-19T20:40:54.485Z,17.32
2023-05-19T20:43:21.123Z,17.06
2023-05-19T20:45:48.007Z,16.94
2023-05-19T20:48:14.832Z,17.05
2023-05-19T20:50:41.463Z,17.04
2023-05-19T20:53:08.188Z,17.01
2023-05-19T20:55:35.100Z,16.99
2023-05-19T20:58:01.983Z,16.96
2023-05-19T21:00:30.362Z,16.88
2023-05-19T21:02:57.493Z,16.79
2023-05-19T21:05:24.723Z,16.78
2023-05-19T21:07:51.462Z,16.96
2023-05-19T21:10:18.378Z,16.99
2023-05-19T21:12:47.869Z,17.19
2023-05-19T21:15:14.733Z,17.18
2023-05-19T21:17:41.486Z,16.97
2023-05-19T21:20:11.992Z,16.99
2023-05-19T21:22:38.641Z,16.97
2023-05-19T21:25:05.836Z,16.92
2023-05-19T21:27:32.474Z,16.66
2023-05-19T21:29:59.128Z,16.56
2023-05-19T21:32:25.810Z,16.54
2023-05-19T21:34:52.528Z,16.50
2023-05-19T21:37:19.145Z,16.62
2023-05-19T21:39:45.852Z,16.23
2023-05-19T21:42:12.597Z,16.17
2023-05-19T21:44:39.301Z,16.11
2023-05-19T21:47:05.935Z,16.20
2023-05-19T21:49:32.603Z,16.27
2023-05-19T21:51:59.320Z,16.22
2023-05-19T21:54:26.194Z,16.17
2023-05-19T21:56:52.824Z,15.81
2023-05-19T21:59:19.514Z,15.90
2023-05-19T22:01:46.369Z,15.82
2023-05-19T22:04:13.077Z,15.82
2023-05-19T22:06:39.698Z,15.94
2023-05-19T22:09:06.337Z,15.83
2023-05-19T22:11:33.090Z,15.62
2023-05-19T22:13:59.721Z,15.62
2023-05-19T22:16:26.387Z,15.72
2023-05-19T22:18:53.133Z,15.88
2023-05-19T22:21:19.971Z,15.83
2023-05-19T22:23:46.732Z,15.62
2023-05-19T22:26:13.362Z,15.51
2023-05-19T22:28:40.219Z,15.66
2023-05-19T22:31:06.909Z,15.54
2023-05-19T22:33:33.521Z,15.54
2023-05-19T22:36:00.202Z,15.55
2023-05-19T22:38:26.841Z,15.50
2023-05-19T22:40:53.608Z,15.47
2023-05-19T22:43:20.339Z,15.66
2023-05-19T22:45:47.039Z,15.53
2023-05-19T22:48:13.883Z,15.63
2023-05-19T22:50:40.517Z,15.71
2023-05-19T22:53:07.210Z,15.73
2023-05-19T22:55:34.283Z,15.95
2023-05-19T22:58:01.170Z,15.83
2023-05-19T23:00:27.844Z,15.82
2023-05-19T23:02:54.760Z,15.84
2023-05-19T23:05:21.512Z,15.73
2023-05-19T23:07:48.194Z,15.77
2023-05-19T23:10:14.933Z,15.43
2023-05-19T23:12:44.103Z,15.45
2023-05-19T23:15:10.968Z,15.63
2023-05-19T23:17:37.946Z,15.40
2023-05-19T23:20:04.954Z,15.07
2023-05-19T23:22:31.601Z,15.05
2023-05-19T23:24:58.457Z,15.14
2023-05-19T23:27:25.163Z,15.10
2023-05-19T23:29:51.815Z,15.16
2023-05-19T23:32:18.563Z,15.18
2023-05-19T23:34:47.470Z,15.16
2023-05-19T23:37:14.173Z,15.13
2023-05-19T23:39:40.770Z,15.25
2023-05-19T23:42:07.434Z,15.11
2023-05-19T23:44:34.136Z,14.92
2023-05-19T23:47:00.865Z,15.03
2023-05-19T23:49:27.642Z,15.01
2023-05-19T23:51:54.328Z,14.99
2023-05-19T23:54:21.002Z,15.03
2023-05-19T23:56:47.732Z,15.08
2023-05-19T23:59:14.430Z,14.78
